sensor_id;sensor_type;location;lat;lon;timestamp;temperature;humidity
31991;DHT22;18508;49.386;8.370;2022-09-06T00:01:07;18.60;99.90
31991;DHT22;18508;49.386;8.370;2022-09-06T00:03:38;18.60;99.90
31991;DHT22;18508;49.386;8.370;2022-09-06T00:06:08;18.60;99.90
31991;DHT22;18508;49.386;8.370;2022-09-06T00:08:37;18.70;99.90
31991;DHT22;18508;49.386;8.370;2022-09-06T00:11:05;18.70;99.90
31991;DHT22;18508;49.386;8.370;2022-09-06T00:13:34;18.70;99.90
31991;DHT22;18508;49.386;8.370;2022-09-06T00:16:05;18.80;99.90
31991;DHT22;18508;49.386;8.370;2022-09-06T00:18:33;18.80;99.90
31991;DHT22;18508;49.386;8.370;2022-09-06T00:21:12;18.80;99.90
31991;DHT22;18508;49.386;8.370;2022-09-06T00:23:41;18.80;99.90
31991;DHT22;18508;49.386;8.370;2022-09-06T00:26:09;18.90;99.90
31991;DHT22;18508;49.386;8.370;2022-09-06T00:28:38;18.80;99.90
31991;DHT22;18508;49.386;8.370;2022-09-06T00:31:12;18.90;99.90
31991;DHT22;18508;49.386;8.370;2022-09-06T00:33:40;18.90;99.90
31991;DHT22;18508;49.386;8.370;2022-09-06T00:36:11;18.90;99.90
31991;DHT22;18508;49.386;8.370;2022-09-06T00:38:40;18.90;99.90
31991;DHT22;18508;49.386;8.370;2022-09-06T00:41:11;18.80;99.90
31991;DHT22;18508;49.386;8.370;2022-09-06T00:43:40;18.80;99.90
31991;DHT22;18508;49.386;8.370;2022-09-06T00:46:11;18.80;99.90
31991;DHT22;18508;49.386;8.370;2022-09-06T00:48:42;18.80;99.90
31991;DHT22;18508;49.386;8.370;2022-09-06T00:51:14;18.70;99.90
31991;DHT22;18508;49.386;8.370;2022-09-06T00:53:43;18.70;99.90
31991;DHT22;18508;49.386;8.370;2022-09-06T00:56:12;18.70;99.90
31991;DHT22;18508;49.386;8.370;2022-09-06T00:58:40;18.70;99.90
31991;DHT22;18508;49.386;8.370;2022-09-06T01:01:09;18.70;99.90
31991;DHT22;18508;49.386;8.370;2022-09-06T01:03:38;18.70;99.90
31991;DHT22;18508;49.386;8.370;2022-09-06T01:06:17;18.60;99.90
31991;DHT22;18508;49.386;8.370;2022-09-06T01:08:58;18.60;99.90
31991;DHT22;18508;49.386;8.370;2022-09-06T01:11:39;18.60;99.90
31991;DHT22;18508;49.386;8.370;2022-09-06T01:14:15;18.60;99.90
31991;DHT22;18508;49.386;8.370;2022-09-06T01:16:50;18.60;99.90
31991;DHT22;18508;49.386;8.370;2022-09-06T01:19:47;18.50;99.90
31991;DHT22;18508;49.386;8.370;2022-09-06T01:22:40;18.40;99.90
31991;DHT22;18508;49.386;8.370;2022-09-06T01:25:31;18.60;99.90
31991;DHT22;18508;49.386;8.370;2022-09-06T01:28:24;18.80;99.90
31991;DHT22;18508;49.386;8.370;2022-09-06T01:31:01;19.00;99.90
31991;DHT22;18508;49.386;8.370;2022-09-06T01:33:37;19.40;99.90
31991;DHT22;18508;49.386;8.370;2022-09-06T01:36:12;19.60;99.90
31991;DHT22;18508;49.386;8.370;2022-09-06T01:38:42;19.70;99.90
31991;DHT22;18508;49.386;8.370;2022-09-06T01:41:10;19.90;99.90
31991;DHT22;18508;49.386;8.370;2022-09-06T01:43:43;19.90;99.90
31991;DHT22;18508;49.386;8.370;2022-09-06T01:46:18;20.00;99.90
31991;DHT22;18508;49.386;8.370;2022-09-06T01:48:59;20.20;99.90
31991;DHT22;18508;49.386;8.370;2022-09-06T01:51:34;20.30;99.90
31991;DHT22;18508;49.386;8.370;2022-09-06T01:54:17;20.30;99.90
31991;DHT22;18508;49.386;8.370;2022-09-06T01:56:56;20.10;99.90
31991;DHT22;18508;49.386;8.370;2022-09-06T01:59:52;19.90;99.90
31991;DHT22;18508;49.386;8.370;2022-09-06T02:02:27;19.70;99.90
31991;DHT22;18508;49.386;8.370;2022-09-06T02:05:05;19.70;99.90
31991;DHT22;18508;49.386;8.370;2022-09-06T02:07:36;19.60;99.90
31991;DHT22;18508;49.386;8.370;2022-09-06T02:10:11;19.50;99.90
31991;DHT22;18508;49.386;8.370;2022-09-06T02:12:44;19.40;99.90
31991;DHT22;18508;49.386;8.370;2022-09-06T02:15:18;19.40;99.90
31991;DHT22;18508;49.386;8.370;2022-09-06T02:17:52;19.30;99.90
31991;DHT22;18508;49.386;8.370;2022-09-06T02:20:30;19.20;99.90
31991;DHT22;18508;49.386;8.370;2022-09-06T02:23:03;19.20;99.90
31991;DHT22;18508;49.386;8.370;2022-09-06T02:25:37;19.20;99.90
31991;DHT22;18508;49.386;8.370;2022-09-06T02:28:07;19.20;99.90
31991;DHT22;18508;49.386;8.370;2022-09-06T02:30:39;19.20;99.90
31991;DHT22;18508;49.386;8.370;2022-09-06T02:33:12;19.20;99.90
31991;DHT22;18508;49.386;8.370;2022-09-06T02:35:43;19.20;99.90
31991;DHT22;18508;49.386;8.370;2022-09-06T02:38:12;19.20;99.90
31991;DHT22;18508;49.386;8.370;2022-09-06T02:40:43;19.20;99.90
31991;DHT22;18508;49.386;8.370;2022-09-06T02:43:12;19.20;99.90
31991;DHT22;18508;49.386;8.370;2022-09-06T02:45:41;19.20;99.90
31991;DHT22;18508;49.386;8.370;2022-09-06T02:48:09;19.20;99.90
31991;DHT22;18508;49.386;8.370;2022-09-06T02:50:38;19.10;99.90
31991;DHT22;18508;49.386;8.370;2022-09-06T02:53:07;19.10;99.90
31991;DHT22;18508;49.386;8.370;2022-09-06T02:55:36;19.10;99.90
31991;DHT22;18508;49.386;8.370;2022-09-06T02:58:07;19.10;99.90
31991;DHT22;18508;49.386;8.370;2022-09-06T03:00:36;19.10;99.90
31991;DHT22;18508;49.386;8.370;2022-09-06T03:03:06;19.00;99.90
31991;DHT22;18508;49.386;8.370;2022-09-06T03:05:34;19.10;99.90
31991;DHT22;18508;49.386;8.370;2022-09-06T03:08:02;19.10;99.90
31991;DHT22;18508;49.386;8.370;2022-09-06T03:10:30;19.10;99.90
31991;DHT22;18508;49.386;8.370;2022-09-06T03:12:59;19.00;99.90
31991;DHT22;18508;49.386;8.370;2022-09-06T03:15:27;19.00;99.90
31991;DHT22;18508;49.386;8.370;2022-09-06T03:17:59;18.90;99.90
31991;DHT22;18508;49.386;8.370;2022-09-06T03:20:28;18.90;99.90
31991;DHT22;18508;49.386;8.370;2022-09-06T03:23:02;18.90;99.90
31991;DHT22;18508;49.386;8.370;2022-09-06T03:25:31;18.80;99.90
31991;DHT22;18508;49.386;8.370;2022-09-06T03:27:59;18.80;99.90
31991;DHT22;18508;49.386;8.370;2022-09-06T03:30:29;18.70;99.90
31991;DHT22;18508;49.386;8.370;2022-09-06T03:32:58;18.60;99.90
31991;DHT22;18508;49.386;8.370;2022-09-06T03:35:30;18.60;99.90
31991;DHT22;18508;49.386;8.370;2022-09-06T03:37:58;18.50;99.90
31991;DHT22;18508;49.386;8.370;2022-09-06T03:40:26;18.40;99.90
31991;DHT22;18508;49.386;8.370;2022-09-06T03:42:55;18.30;99.90
31991;DHT22;18508;49.386;8.370;2022-09-06T03:45:23;18.20;99.90
31991;DHT22;18508;49.386;8.370;2022-09-06T03:47:51;18.20;99.90
31991;DHT22;18508;49.386;8.370;2022-09-06T03:50:19;18.20;99.90
31991;DHT22;18508;49.386;8.370;2022-09-06T03:52:50;18.10;99.90
31991;DHT22;18508;49.386;8.370;2022-09-06T03:55:22;18.10;99.90
31991;DHT22;18508;49.386;8.370;2022-09-06T03:57:50;18.00;99.90
31991;DHT22;18508;49.386;8.370;2022-09-06T04:00:19;17.90;99.90
31991;DHT22;18508;49.386;8.370;2022-09-06T04:02:47;17.80;99.90
31991;DHT22;18508;49.386;8.370;2022-09-06T04:05:16;17.70;99.90
31991;DHT22;18508;49.386;8.370;2022-09-06T04:07:43;17.60;99.90
31991;DHT22;18508;49.386;8.370;2022-09-06T04:10:14;17.50;99.90
31991;DHT22;18508;49.386;8.370;2022-09-06T04:12:43;17.40;99.90
31991;DHT22;18508;49.386;8.370;2022-09-06T04:15:15;17.40;99.90
31991;DHT22;18508;49.386;8.370;2022-09-06T04:17:44;17.40;99.90
31991;DHT22;18508;49.386;8.370;2022-09-06T04:20:13;17.30;99.90
31991;DHT22;18508;49.386;8.370;2022-09-06T04:22:41;17.20;99.90
31991;DHT22;18508;49.386;8.370;2022-09-06T04:25:10;17.20;99.90
31991;DHT22;18508;49.386;8.370;2022-09-06T04:27:40;17.10;99.90
31991;DHT22;18508;49.386;8.370;2022-09-06T04:30:09;17.10;99.90
31991;DHT22;18508;49.386;8.370;2022-09-06T04:32:37;17.00;99.90
31991;DHT22;18508;49.386;8.370;2022-09-06T04:35:07;17.00;99.90
31991;DHT22;18508;49.386;8.370;2022-09-06T04:37:35;17.00;99.90
31991;DHT22;18508;49.386;8.370;2022-09-06T04:40:03;16.90;99.90
31991;DHT22;18508;49.386;8.370;2022-09-06T04:42:32;16.90;99.90
31991;DHT22;18508;49.386;8.370;2022-09-06T04:45:01;16.90;99.90
31991;DHT22;18508;49.386;8.370;2022-09-06T04:47:30;16.80;99.90
31991;DHT22;18508;49.386;8.370;2022-09-06T04:49:58;16.80;99.90
31991;DHT22;18508;49.386;8.370;2022-09-06T04:52:30;16.80;99.90
31991;DHT22;18508;49.386;8.370;2022-09-06T04:54:59;16.80;99.90
31991;DHT22;18508;49.386;8.370;2022-09-06T04:57:27;16.70;99.90
31991;DHT22;18508;49.386;8.370;2022-09-06T04:59:55;16.70;99.90
31991;DHT22;18508;49.386;8.370;2022-09-06T05:02:25;16.60;99.90
31991;DHT22;18508;49.386;8.370;2022-09-06T05:04:53;16.60;99.90
31991;DHT22;18508;49.386;8.370;2022-09-06T05:07:22;16.60;99.90
31991;DHT22;18508;49.386;8.370;2022-09-06T05:09:50;16.60;99.90
31991;DHT22;18508;49.386;8.370;2022-09-06T05:12:22;16.60;99.90
31991;DHT22;18508;49.386;8.370;2022-09-06T05:14:50;16.60;99.90
31991;DHT22;18508;49.386;8.370;2022-09-06T05:17:18;16.60;99.90
31991;DHT22;18508;49.386;8.370;2022-09-06T05:19:47;16.60;99.90
31991;DHT22;18508;49.386;8.370;2022-09-06T05:22:15;16.70;99.90
31991;DHT22;18508;49.386;8.370;2022-09-06T05:24:44;16.60;99.90
31991;DHT22;18508;49.386;8.370;2022-09-06T05:27:12;16.70;99.90
31991;DHT22;18508;49.386;8.370;2022-09-06T05:29:40;16.70;99.90
31991;DHT22;18508;49.386;8.370;2022-09-06T05:32:08;16.70;99.90
31991;DHT22;18508;49.386;8.370;2022-09-06T05:34:36;16.80;99.90
31991;DHT22;18508;49.386;8.370;2022-09-06T05:37:09;16.90;99.90
31991;DHT22;18508;49.386;8.370;2022-09-06T05:39:38;16.90;99.90
31991;DHT22;18508;49.386;8.370;2022-09-06T05:42:07;16.90;99.90
31991;DHT22;18508;49.386;8.370;2022-09-06T05:44:35;17.00;99.90
31991;DHT22;18508;49.386;8.370;2022-09-06T05:47:04;17.00;99.90
31991;DHT22;18508;49.386;8.370;2022-09-06T05:49:33;17.10;99.90
31991;DHT22;18508;49.386;8.370;2022-09-06T05:52:01;17.10;99.90
31991;DHT22;18508;49.386;8.370;2022-09-06T05:54:31;17.20;99.90
31991;DHT22;18508;49.386;8.370;2022-09-06T05:56:59;17.20;99.90
31991;DHT22;18508;49.386;8.370;2022-09-06T05:59:28;17.20;99.90
31991;DHT22;18508;49.386;8.370;2022-09-06T06:01:56;17.30;99.90
31991;DHT22;18508;49.386;8.370;2022-09-06T06:04:24;17.30;99.90
31991;DHT22;18508;49.386;8.370;2022-09-06T06:06:53;17.30;99.90
31991;DHT22;18508;49.386;8.370;2022-09-06T06:09:21;17.40;99.90
31991;DHT22;18508;49.386;8.370;2022-09-06T06:11:51;17.50;99.90
31991;DHT22;18508;49.386;8.370;2022-09-06T06:14:19;17.50;99.90
31991;DHT22;18508;49.386;8.370;2022-09-06T06:16:48;17.50;99.90
31991;DHT22;18508;49.386;8.370;2022-09-06T06:19:18;17.50;99.90
31991;DHT22;18508;49.386;8.370;2022-09-06T06:21:50;17.60;99.90
31991;DHT22;18508;49.386;8.370;2022-09-06T06:24:18;17.70;99.90
31991;DHT22;18508;49.386;8.370;2022-09-06T06:26:47;17.70;99.90
31991;DHT22;18508;49.386;8.370;2022-09-06T06:29:16;17.70;99.90
31991;DHT22;18508;49.386;8.370;2022-09-06T06:31:45;17.80;99.90
31991;DHT22;18508;49.386;8.370;2022-09-06T06:34:13;17.90;99.90
31991;DHT22;18508;49.386;8.370;2022-09-06T06:36:42;18.00;99.90
31991;DHT22;18508;49.386;8.370;2022-09-06T06:39:10;18.20;99.90
31991;DHT22;18508;49.386;8.370;2022-09-06T06:41:41;18.30;99.90
31991;DHT22;18508;49.386;8.370;2022-09-06T06:44:11;18.60;99.90
31991;DHT22;18508;49.386;8.370;2022-09-06T06:46:40;18.70;99.90
31991;DHT22;18508;49.386;8.370;2022-09-06T06:49:09;18.80;99.90
31991;DHT22;18508;49.386;8.370;2022-09-06T06:51:40;18.90;99.90
31991;DHT22;18508;49.386;8.370;2022-09-06T06:54:09;19.00;99.90
31991;DHT22;18508;49.386;8.370;2022-09-06T06:56:38;19.00;99.90
31991;DHT22;18508;49.386;8.370;2022-09-06T06:59:07;19.10;99.90
31991;DHT22;18508;49.386;8.370;2022-09-06T07:01:36;19.20;99.90
31991;DHT22;18508;49.386;8.370;2022-09-06T07:04:06;19.20;99.90
31991;DHT22;18508;49.386;8.370;2022-09-06T07:06:49;19.30;99.90
31991;DHT22;18508;49.386;8.370;2022-09-06T07:09:38;19.50;99.90
31991;DHT22;18508;49.386;8.370;2022-09-06T07:12:27;19.50;99.90
31991;DHT22;18508;49.386;8.370;2022-09-06T07:14:55;19.60;99.90
31991;DHT22;18508;49.386;8.370;2022-09-06T07:17:23;19.60;99.90
31991;DHT22;18508;49.386;8.370;2022-09-06T07:19:52;19.70;99.90
31991;DHT22;18508;49.386;8.370;2022-09-06T07:22:41;19.80;99.90
31991;DHT22;18508;49.386;8.370;2022-09-06T07:25:09;20.00;99.90
31991;DHT22;18508;49.386;8.370;2022-09-06T07:27:42;20.10;99.90
31991;DHT22;18508;49.386;8.370;2022-09-06T07:30:16;20.10;99.90
31991;DHT22;18508;49.386;8.370;2022-09-06T07:32:45;20.30;99.90
31991;DHT22;18508;49.386;8.370;2022-09-06T07:35:15;20.30;99.90
31991;DHT22;18508;49.386;8.370;2022-09-06T07:37:52;20.30;99.90
31991;DHT22;18508;49.386;8.370;2022-09-06T07:40:21;20.40;99.90
31991;DHT22;18508;49.386;8.370;2022-09-06T07:42:49;20.50;99.90
31991;DHT22;18508;49.386;8.370;2022-09-06T07:45:21;20.60;99.90
31991;DHT22;18508;49.386;8.370;2022-09-06T07:47:53;20.60;99.90
31991;DHT22;18508;49.386;8.370;2022-09-06T07:50:28;20.60;99.90
31991;DHT22;18508;49.386;8.370;2022-09-06T07:53:18;20.70;99.90
31991;DHT22;18508;49.386;8.370;2022-09-06T07:55:57;20.80;99.90
31991;DHT22;18508;49.386;8.370;2022-09-06T07:58:26;21.00;99.90
31991;DHT22;18508;49.386;8.370;2022-09-06T08:01:13;21.10;99.90
31991;DHT22;18508;49.386;8.370;2022-09-06T08:03:42;21.30;99.90
31991;DHT22;18508;49.386;8.370;2022-09-06T08:06:12;21.10;99.90
31991;DHT22;18508;49.386;8.370;2022-09-06T08:08:44;21.00;99.90
31991;DHT22;18508;49.386;8.370;2022-09-06T08:11:28;21.00;99.90
31991;DHT22;18508;49.386;8.370;2022-09-06T08:13:58;21.00;99.90
31991;DHT22;18508;49.386;8.370;2022-09-06T08:16:32;20.90;99.90
31991;DHT22;18508;49.386;8.370;2022-09-06T08:19:02;20.90;99.90
31991;DHT22;18508;49.386;8.370;2022-09-06T08:21:32;21.00;99.90
31991;DHT22;18508;49.386;8.370;2022-09-06T08:24:03;21.10;99.90
31991;DHT22;18508;49.386;8.370;2022-09-06T08:26:33;21.10;99.90
31991;DHT22;18508;49.386;8.370;2022-09-06T08:29:03;21.30;99.90
31991;DHT22;18508;49.386;8.370;2022-09-06T08:31:36;21.40;99.90
31991;DHT22;18508;49.386;8.370;2022-09-06T08:34:05;21.60;99.90
31991;DHT22;18508;49.386;8.370;2022-09-06T08:36:35;21.70;99.90
31991;DHT22;18508;49.386;8.370;2022-09-06T08:39:06;21.70;99.90
31991;DHT22;18508;49.386;8.370;2022-09-06T08:41:44;21.70;99.90
31991;DHT22;18508;49.386;8.370;2022-09-06T08:44:14;21.70;99.90
31991;DHT22;18508;49.386;8.370;2022-09-06T08:47:07;21.90;99.90
31991;DHT22;18508;49.386;8.370;2022-09-06T08:49:37;21.90;99.90
31991;DHT22;18508;49.386;8.370;2022-09-06T08:52:35;22.00;99.90
31991;DHT22;18508;49.386;8.370;2022-09-06T08:55:30;22.10;99.90
31991;DHT22;18508;49.386;8.370;2022-09-06T08:58:10;22.10;99.90
31991;DHT22;18508;49.386;8.370;2022-09-06T09:00:46;22.40;99.90
31991;DHT22;18508;49.386;8.370;2022-09-06T09:03:18;22.50;99.90
31991;DHT22;18508;49.386;8.370;2022-09-06T09:05:50;22.70;99.90
31991;DHT22;18508;49.386;8.370;2022-09-06T09:08:23;22.70;99.90
31991;DHT22;18508;49.386;8.370;2022-09-06T09:10:56;22.80;99.90
31991;DHT22;18508;49.386;8.370;2022-09-06T09:13:31;22.90;99.90
31991;DHT22;18508;49.386;8.370;2022-09-06T09:16:01;23.10;99.90
31991;DHT22;18508;49.386;8.370;2022-09-06T09:18:32;23.20;99.90
31991;DHT22;18508;49.386;8.370;2022-09-06T09:23:39;23.60;99.90
31991;DHT22;18508;49.386;8.370;2022-09-06T09:26:11;23.60;99.90
31991;DHT22;18508;49.386;8.370;2022-09-06T09:29:06;23.70;99.90
31991;DHT22;18508;49.386;8.370;2022-09-06T09:31:37;23.70;98.00
31991;DHT22;18508;49.386;8.370;2022-09-06T09:34:12;23.90;99.90
31991;DHT22;18508;49.386;8.370;2022-09-06T09:36:40;24.00;94.20
31991;DHT22;18508;49.386;8.370;2022-09-06T09:39:35;24.20;95.60
31991;DHT22;18508;49.386;8.370;2022-09-06T09:42:06;24.40;84.80
31991;DHT22;18508;49.386;8.370;2022-09-06T09:44:35;24.40;81.10
31991;DHT22;18508;49.386;8.370;2022-09-06T09:47:22;24.20;91.50
31991;DHT22;18508;49.386;8.370;2022-09-06T09:49:51;24.40;88.90
31991;DHT22;18508;49.386;8.370;2022-09-06T09:52:24;24.70;75.40
31991;DHT22;18508;49.386;8.370;2022-09-06T09:54:59;24.90;71.50
31991;DHT22;18508;49.386;8.370;2022-09-06T09:57:29;24.90;70.80
31991;DHT22;18508;49.386;8.370;2022-09-06T09:59:59;24.90;68.10
31991;DHT22;18508;49.386;8.370;2022-09-06T10:02:30;25.00;67.60
31991;DHT22;18508;49.386;8.370;2022-09-06T10:05:03;25.20;61.30
31991;DHT22;18508;49.386;8.370;2022-09-06T10:07:34;25.00;66.70
31991;DHT22;18508;49.386;8.370;2022-09-06T10:10:13;24.90;78.70
31991;DHT22;18508;49.386;8.370;2022-09-06T10:12:42;25.00;86.70
31991;DHT22;18508;49.386;8.370;2022-09-06T10:15:30;25.30;73.50
31991;DHT22;18508;49.386;8.370;2022-09-06T10:17:59;25.40;73.90
31991;DHT22;18508;49.386;8.370;2022-09-06T10:20:32;25.70;69.00
31991;DHT22;18508;49.386;8.370;2022-09-06T10:23:05;25.80;71.70
31991;DHT22;18508;49.386;8.370;2022-09-06T10:25:44;25.90;77.10
31991;DHT22;18508;49.386;8.370;2022-09-06T10:28:36;26.00;66.80
31991;DHT22;18508;49.386;8.370;2022-09-06T10:31:31;26.00;61.20
31991;DHT22;18508;49.386;8.370;2022-09-06T10:34:16;26.30;60.70
31991;DHT22;18508;49.386;8.370;2022-09-06T10:36:54;26.30;66.00
31991;DHT22;18508;49.386;8.370;2022-09-06T10:39:42;26.50;55.90
31991;DHT22;18508;49.386;8.370;2022-09-06T10:42:28;26.50;56.30
31991;DHT22;18508;49.386;8.370;2022-09-06T10:50:41;26.70;48.90
31991;DHT22;18508;49.386;8.370;2022-09-06T10:53:15;26.90;47.40
31991;DHT22;18508;49.386;8.370;2022-09-06T10:55:49;27.00;42.70
31991;DHT22;18508;49.386;8.370;2022-09-06T10:58:25;27.00;44.20
31991;DHT22;18508;49.386;8.370;2022-09-06T11:01:24;27.10;44.80
31991;DHT22;18508;49.386;8.370;2022-09-06T11:03:56;27.30;41.80
31991;DHT22;18508;49.386;8.370;2022-09-06T11:06:42;27.60;36.80
31991;DHT22;18508;49.386;8.370;2022-09-06T11:09:15;27.60;31.60
31991;DHT22;18508;49.386;8.370;2022-09-06T11:11:49;27.80;30.60
31991;DHT22;18508;49.386;8.370;2022-09-06T11:14:24;27.80;29.00
31991;DHT22;18508;49.386;8.370;2022-09-06T11:17:01;27.80;29.60
31991;DHT22;18508;49.386;8.370;2022-09-06T11:19:37;27.90;26.60
31991;DHT22;18508;49.386;8.370;2022-09-06T11:22:46;28.00;26.40
31991;DHT22;18508;49.386;8.370;2022-09-06T11:25:30;28.30;28.10
31991;DHT22;18508;49.386;8.370;2022-09-06T11:28:04;28.50;22.10
31991;DHT22;18508;49.386;8.370;2022-09-06T11:30:36;28.10;58.50
31991;DHT22;18508;49.386;8.370;2022-09-06T11:33:19;28.00;20.20
31991;DHT22;18508;49.386;8.370;2022-09-06T11:35:55;28.00;59.40
31991;DHT22;18508;49.386;8.370;2022-09-06T11:38:41;28.30;56.60
31991;DHT22;18508;49.386;8.370;2022-09-06T11:41:14;28.40;54.70
31991;DHT22;18508;49.386;8.370;2022-09-06T11:43:46;28.60;53.70
31991;DHT22;18508;49.386;8.370;2022-09-06T11:49:35;28.80;48.90
31991;DHT22;18508;49.386;8.370;2022-09-06T11:55:35;29.10;51.30
31991;DHT22;18508;49.386;8.370;2022-09-06T11:58:08;29.40;46.30
31991;DHT22;18508;49.386;8.370;2022-09-06T12:00:39;29.60;45.80
31991;DHT22;18508;49.386;8.370;2022-09-06T12:03:08;29.50;42.50
31991;DHT22;18508;49.386;8.370;2022-09-06T12:06:16;29.60;41.60
31991;DHT22;18508;49.386;8.370;2022-09-06T12:08:47;29.50;36.00
31991;DHT22;18508;49.386;8.370;2022-09-06T12:11:41;29.60;32.80
31991;DHT22;18508;49.386;8.370;2022-09-06T12:14:27;29.80;30.80
31991;DHT22;18508;49.386;8.370;2022-09-06T12:17:25;30.00;28.00
31991;DHT22;18508;49.386;8.370;2022-09-06T12:19:58;30.10;23.10
31991;DHT22;18508;49.386;8.370;2022-09-06T12:22:53;30.40;22.40
31991;DHT22;18508;49.386;8.370;2022-09-06T12:25:49;30.60;20.90
31991;DHT22;18508;49.386;8.370;2022-09-06T12:28:30;30.80;19.90
31991;DHT22;18508;49.386;8.370;2022-09-06T12:31:01;30.90;20.10
31991;DHT22;18508;49.386;8.370;2022-09-06T12:33:51;31.20;16.10
31991;DHT22;18508;49.386;8.370;2022-09-06T12:36:24;31.20;12.00
31991;DHT22;18508;49.386;8.370;2022-09-06T12:39:02;31.40;9.10
31991;DHT22;18508;49.386;8.370;2022-09-06T12:41:36;31.00;7.40
31991;DHT22;18508;49.386;8.370;2022-09-06T12:44:10;31.00;5.10
31991;DHT22;18508;49.386;8.370;2022-09-06T12:46:44;31.30;1.00
31991;DHT22;18508;49.386;8.370;2022-09-06T12:49:19;31.20;1.00
31991;DHT22;18508;49.386;8.370;2022-09-06T12:51:48;31.30;1.00
31991;DHT22;18508;49.386;8.370;2022-09-06T12:54:23;31.10;1.00
31991;DHT22;18508;49.386;8.370;2022-09-06T12:56:52;31.00;1.00
31991;DHT22;18508;49.386;8.370;2022-09-06T12:59:23;31.30;1.00
31991;DHT22;18508;49.386;8.370;2022-09-06T13:01:58;31.70;1.00
31991;DHT22;18508;49.386;8.370;2022-09-06T13:04:32;31.90;1.00
31991;DHT22;18508;49.386;8.370;2022-09-06T13:07:04;31.70;1.00
31991;DHT22;18508;49.386;8.370;2022-09-06T13:09:37;31.50;1.00
31991;DHT22;18508;49.386;8.370;2022-09-06T13:12:14;31.10;1.00
31991;DHT22;18508;49.386;8.370;2022-09-06T13:14:51;30.90;1.00
31991;DHT22;18508;49.386;8.370;2022-09-06T13:17:24;30.70;1.00
31991;DHT22;18508;49.386;8.370;2022-09-06T13:19:53;30.60;1.00
31991;DHT22;18508;49.386;8.370;2022-09-06T13:22:39;30.30;1.00
31991;DHT22;18508;49.386;8.370;2022-09-06T13:25:15;30.20;1.00
31991;DHT22;18508;49.386;8.370;2022-09-06T13:27:48;29.90;1.00
31991;DHT22;18508;49.386;8.370;2022-09-06T13:30:33;29.70;1.00
31991;DHT22;18508;49.386;8.370;2022-09-06T13:33:03;29.30;1.00
31991;DHT22;18508;49.386;8.370;2022-09-06T13:35:34;28.90;10.50
31991;DHT22;18508;49.386;8.370;2022-09-06T13:38:30;29.20;15.60
31991;DHT22;18508;49.386;8.370;2022-09-06T13:41:00;29.50;14.20
31991;DHT22;18508;49.386;8.370;2022-09-06T13:43:43;29.80;12.40
31991;DHT22;18508;49.386;8.370;2022-09-06T13:46:14;29.80;4.60
31991;DHT22;18508;49.386;8.370;2022-09-06T13:48:42;29.80;5.80
31991;DHT22;18508;49.386;8.370;2022-09-06T13:51:11;30.00;2.70
31991;DHT22;18508;49.386;8.370;2022-09-06T13:53:40;30.30;1.70
31991;DHT22;18508;49.386;8.370;2022-09-06T13:56:10;30.50;3.40
31991;DHT22;18508;49.386;8.370;2022-09-06T13:58:39;30.70;1.00
31991;DHT22;18508;49.386;8.370;2022-09-06T14:01:08;31.00;1.00
31991;DHT22;18508;49.386;8.370;2022-09-06T14:03:40;30.80;1.00
31991;DHT22;18508;49.386;8.370;2022-09-06T14:06:09;30.20;1.00
31991;DHT22;18508;49.386;8.370;2022-09-06T14:08:38;29.70;3.40
31991;DHT22;18508;49.386;8.370;2022-09-06T14:11:28;29.40;8.40
31991;DHT22;18508;49.386;8.370;2022-09-06T14:13:57;28.80;7.30
31991;DHT22;18508;49.386;8.370;2022-09-06T14:16:35;28.50;11.90
31991;DHT22;18508;49.386;8.370;2022-09-06T14:19:06;29.10;12.70
31991;DHT22;18508;49.386;8.370;2022-09-06T14:21:35;29.50;7.60
31991;DHT22;18508;49.386;8.370;2022-09-06T14:24:06;30.20;7.40
31991;DHT22;18508;49.386;8.370;2022-09-06T14:26:38;30.70;4.00
31991;DHT22;18508;49.386;8.370;2022-09-06T14:29:11;30.90;2.10
31991;DHT22;18508;49.386;8.370;2022-09-06T14:31:43;30.80;4.60
31991;DHT22;18508;49.386;8.370;2022-09-06T14:34:16;30.60;2.90
31991;DHT22;18508;49.386;8.370;2022-09-06T14:36:44;30.20;3.60
31991;DHT22;18508;49.386;8.370;2022-09-06T14:39:12;29.80;2.50
31991;DHT22;18508;49.386;8.370;2022-09-06T14:41:44;29.30;2.00
31991;DHT22;18508;49.386;8.370;2022-09-06T14:44:12;29.00;1.00
31991;DHT22;18508;49.386;8.370;2022-09-06T14:46:41;28.80;2.10
31991;DHT22;18508;49.386;8.370;2022-09-06T14:49:10;28.70;2.90
31991;DHT22;18508;49.386;8.370;2022-09-06T14:51:40;28.50;12.60
31991;DHT22;18508;49.386;8.370;2022-09-06T14:54:11;28.30;23.80
31991;DHT22;18508;49.386;8.370;2022-09-06T14:56:43;28.10;20.60
31991;DHT22;18508;49.386;8.370;2022-09-06T14:59:11;28.00;22.20
31991;DHT22;18508;49.386;8.370;2022-09-06T15:01:41;28.10;18.00
31991;DHT22;18508;49.386;8.370;2022-09-06T15:04:13;28.60;16.40
31991;DHT22;18508;49.386;8.370;2022-09-06T15:06:44;28.50;14.10
31991;DHT22;18508;49.386;8.370;2022-09-06T15:09:15;28.30;13.00
31991;DHT22;18508;49.386;8.370;2022-09-06T15:11:47;28.00;14.30
31991;DHT22;18508;49.386;8.370;2022-09-06T15:14:20;27.70;16.90
31991;DHT22;18508;49.386;8.370;2022-09-06T15:16:50;27.70;17.20
31991;DHT22;18508;49.386;8.370;2022-09-06T15:19:23;27.80;17.50
31991;DHT22;18508;49.386;8.370;2022-09-06T15:21:53;28.20;9.80
31991;DHT22;18508;49.386;8.370;2022-09-06T15:24:24;28.00;5.70
31991;DHT22;18508;49.386;8.370;2022-09-06T15:26:57;28.60;3.10
31991;DHT22;18508;49.386;8.370;2022-09-06T15:29:26;28.30;1.50
31991;DHT22;18508;49.386;8.370;2022-09-06T15:31:55;27.90;3.60
31991;DHT22;18508;49.386;8.370;2022-09-06T15:34:25;27.60;4.70
31991;DHT22;18508;49.386;8.370;2022-09-06T15:36:57;27.50;4.60
31991;DHT22;18508;49.386;8.370;2022-09-06T15:39:27;27.40;5.60
31991;DHT22;18508;49.386;8.370;2022-09-06T15:41:58;27.40;7.80
31991;DHT22;18508;49.386;8.370;2022-09-06T15:44:27;27.90;8.50
31991;DHT22;18508;49.386;8.370;2022-09-06T15:46:57;28.60;7.40
31991;DHT22;18508;49.386;8.370;2022-09-06T15:49:26;28.70;4.70
31991;DHT22;18508;49.386;8.370;2022-09-06T15:51:56;28.70;5.80
31991;DHT22;18508;49.386;8.370;2022-09-06T15:54:25;28.70;4.00
31991;DHT22;18508;49.386;8.370;2022-09-06T15:57:11;28.30;6.80
31991;DHT22;18508;49.386;8.370;2022-09-06T15:59:39;28.10;8.90
31991;DHT22;18508;49.386;8.370;2022-09-06T16:02:08;27.80;9.20
31991;DHT22;18508;49.386;8.370;2022-09-06T16:04:37;27.60;10.50
31991;DHT22;18508;49.386;8.370;2022-09-06T16:07:05;27.80;13.00
31991;DHT22;18508;49.386;8.370;2022-09-06T16:09:34;27.70;13.00
31991;DHT22;18508;49.386;8.370;2022-09-06T16:12:03;27.50;14.30
31991;DHT22;18508;49.386;8.370;2022-09-06T16:14:35;27.40;15.50
31991;DHT22;18508;49.386;8.370;2022-09-06T16:17:04;27.30;16.10
31991;DHT22;18508;49.386;8.370;2022-09-06T16:19:32;27.30;18.80
31991;DHT22;18508;49.386;8.370;2022-09-06T16:22:01;27.10;19.20
31991;DHT22;18508;49.386;8.370;2022-09-06T16:24:30;27.00;21.80